Time;durP1;ratioP1;P1;durP2;ratioP2;P2;SDS_P1;SDS_P2;PMS_P1;PMS_P2;Temp;Humidity;BMP_temperature;BMP_pressure;BME280_temperature;BME280_humidity;BME280_pressure;Samples;Min_cycle;Max_cycle;Signal;HPM_P1;HPM_P2
2024/03/14 00:02:17;;;;;;;14.80;8.43;;;;;;;14.27;58.91;101467.00;5032281;27;97066;-90
2024/03/14 00:04:43;;;;;;;12.50;7.45;;;;;;;14.23;59.13;101464.38;5012132;28;96760;-89
2024/03/14 00:07:14;;;;;;;15.00;8.02;;;;;;;14.19;59.31;101466.09;5023276;27;100649;-89
2024/03/14 00:09:40;;;;;;;13.95;8.65;;;;;;;14.17;59.27;101461.69;5013520;28;100380;-90
2024/03/14 00:12:06;;;;;;;15.90;9.00;;;;;;;14.11;59.12;101464.28;5012999;28;96937;-90
2024/03/14 00:14:35;;;;;;;15.00;8.20;;;;;;;14.07;59.42;101466.88;5012258;28;96972;-90
2024/03/14 00:17:00;;;;;;;17.10;9.50;;;;;;;14.04;59.31;101464.22;5028129;27;100579;-90
2024/03/14 00:19:26;;;;;;;17.40;8.68;;;;;;;14.02;59.67;101462.44;5025587;28;98751;-90
2024/03/14 00:21:51;;;;;;;15.05;8.35;;;;;;;14.01;59.53;101466.81;5015114;27;96888;-90
2024/03/14 00:24:17;;;;;;;17.23;8.77;;;;;;;14.01;59.67;101464.22;5034452;27;96930;-90
2024/03/14 00:26:43;;;;;;;15.93;8.57;;;;;;;13.98;59.73;101464.16;5016937;28;100403;-90
2024/03/14 00:29:12;;;;;;;14.93;8.38;;;;;;;13.98;59.74;101463.31;5014607;28;100083;-90
2024/03/14 00:31:41;;;;;;;17.10;9.23;;;;;;;13.98;59.94;101463.31;5032028;27;96803;-90
2024/03/14 00:34:07;;;;;;;15.57;8.07;;;;;;;13.96;59.87;101451.91;5028977;27;96885;-90
2024/03/14 00:36:39;;;;;;;15.77;8.32;;;;;;;13.97;59.98;101462.41;5027333;27;97908;-89
2024/03/14 00:39:08;;;;;;;17.55;9.18;;;;;;;13.98;59.90;101450.19;5026101;27;100381;-90
2024/03/14 00:41:33;;;;;;;17.65;9.55;;;;;;;13.98;59.92;101452.81;5011022;27;97101;-90
2024/03/14 00:44:01;;;;;;;12.95;7.93;;;;;;;13.97;60.02;101451.91;5012730;27;97284;-90
2024/03/14 00:46:28;;;;;;;15.38;8.27;;;;;;;13.97;59.84;101451.03;5004057;28;98072;-89
2024/03/14 00:48:54;;;;;;;12.82;8.07;;;;;;;13.94;59.84;101454.53;5031558;27;97816;-90
2024/03/14 00:51:22;;;;;;;13.52;8.57;;;;;;;13.93;60.08;101451.88;5028046;27;96873;-90
2024/03/14 00:53:47;;;;;;;17.27;8.95;;;;;;;13.94;60.01;101451.00;5031873;27;97354;-90
2024/03/14 00:56:13;;;;;;;14.45;8.73;;;;;;;13.94;60.27;101451.00;5009477;27;100456;-90
2024/03/14 00:58:39;;;;;;;17.20;8.55;;;;;;;13.93;59.98;101446.66;5014160;28;100319;-90
2024/03/14 01:01:04;;;;;;;15.60;8.57;;;;;;;13.92;60.09;101447.50;5013048;27;96849;-90
2024/03/14 01:03:32;;;;;;;15.45;7.97;;;;;;;13.89;60.08;101451.84;5011552;28;97086;-89
2024/03/14 01:06:11;;;;;;;15.20;8.75;;;;;;;13.86;60.08;101443.94;5043733;27;100241;-90
2024/03/14 01:08:37;;;;;;;16.45;8.38;;;;;;;13.86;59.99;101449.19;5011429;28;99820;-90
2024/03/14 01:11:05;;;;;;;14.35;8.00;;;;;;;13.83;60.13;101451.81;5011441;28;96963;-90
2024/03/14 01:13:31;;;;;;;13.55;7.38;;;;;;;13.82;60.19;101441.31;5028832;27;96888;-90
2024/03/14 01:15:57;;;;;;;13.48;7.68;;;;;;;13.80;60.15;101440.44;5011364;28;100573;-90
2024/03/14 01:18:24;;;;;;;13.55;7.40;;;;;;;13.79;60.25;101442.13;5008525;28;100180;-90
2024/03/14 01:20:52;;;;;;;12.32;7.47;;;;;;;13.79;60.48;101446.50;5026096;28;96905;-91
2024/03/14 01:23:17;;;;;;;12.73;7.82;;;;;;;13.79;60.38;101436.91;5028183;27;97412;-90
2024/03/14 01:25:44;;;;;;;13.52;8.00;;;;;;;13.78;60.24;101440.41;5013546;27;100286;-90
2024/03/14 01:28:10;;;;;;;12.02;7.00;;;;;;;13.77;60.13;101443.88;5008157;28;100091;-90
2024/03/14 01:30:36;;;;;;;13.30;7.53;;;;;;;13.73;60.33;101446.47;5004052;28;96819;-89
2024/03/14 01:33:05;;;;;;;11.95;7.95;;;;;;;13.72;60.28;101442.94;5012571;28;97027;-90
2024/03/14 01:35:30;;;;;;;12.20;7.03;;;;;;;13.71;60.44;101439.47;5024325;27;100522;-89
2024/03/14 01:37:56;;;;;;;12.98;6.95;;;;;;;13.67;60.37;101432.44;5011041;28;98901;-90
2024/03/14 01:40:23;;;;;;;11.35;7.60;;;;;;;13.65;60.48;101431.56;5004101;28;96844;-90
2024/03/14 01:42:54;;;;;;;12.52;7.20;;;;;;;13.65;60.48;101442.03;5044203;27;96989;-90
2024/03/14 01:45:23;;;;;;;11.07;7.65;;;;;;;13.65;60.25;101433.28;5011138;28;100426;-90
2024/03/14 01:47:51;;;;;;;12.07;6.72;;;;;;;13.63;60.61;101427.16;5027795;27;99854;-90
2024/03/14 01:50:17;;;;;;;11.07;7.18;;;;;;;13.59;60.51;101426.25;5008533;28;96949;-89
2024/03/14 01:52:44;;;;;;;10.30;6.45;;;;;;;13.58;60.46;101421.84;5013024;28;96999;-89
2024/03/14 01:55:14;;;;;;;11.05;7.07;;;;;;;13.57;60.59;101424.47;5029168;27;97933;-90
2024/03/14 01:57:41;;;;;;;12.93;7.38;;;;;;;13.56;60.53;101420.97;5010386;28;100094;-89
2024/03/14 02:00:11;;;;;;;11.23;7.07;;;;;;;13.54;60.73;101419.19;5059821;27;96918;-90
2024/03/14 02:02:40;;;;;;;13.57;7.05;;;;;;;13.51;60.30;101418.31;5026173;27;96894;-90
2024/03/14 02:05:15;;;;;;;14.02;6.68;;;;;;;13.48;60.59;101418.28;5006054;28;99974;-89
2024/03/14 02:07:42;;;;;;;11.63;6.68;;;;;;;13.48;60.66;101404.31;5068602;27;97720;-90
2024/03/14 02:10:13;;;;;;;11.52;6.50;;;;;;;13.47;60.57;101413.88;5011586;27;96853;-90
2024/03/14 02:12:39;;;;;;;10.13;6.22;;;;;;;13.45;60.68;101407.75;5027468;27;96856;-90
2024/03/14 02:15:06;;;;;;;11.00;6.50;;;;;;;13.48;60.71;101404.31;5032863;27;100046;-90
2024/03/14 02:17:32;;;;;;;12.18;6.75;;;;;;;13.48;60.47;101399.06;5042638;27;100272;-89
2024/03/14 02:19:59;;;;;;;13.38;6.57;;;;;;;13.45;60.56;101399.88;5012346;27;96866;-90
2024/03/14 02:22:27;;;;;;;11.23;6.35;;;;;;;13.43;60.51;101395.50;5014374;28;96907;-89
2024/03/14 02:24:53;;;;;;;11.13;6.32;;;;;;;13.40;60.54;101401.59;5035131;27;98307;-89
2024/03/14 02:27:22;;;;;;;13.77;7.10;;;;;;;13.38;60.50;101389.34;5016780;28;100257;-89
2024/03/14 02:29:48;;;;;;;8.60;6.00;;;;;;;13.38;60.53;101387.59;5009828;27;96880;-90
2024/03/14 02:32:14;;;;;;;10.10;6.35;;;;;;;13.37;60.54;101372.75;5029974;27;96895;-90
2024/03/14 02:34:40;;;;;;;11.35;6.97;;;;;;;13.35;60.44;101368.34;5028746;27;100214;-90
2024/03/14 02:37:05;;;;;;;12.27;6.15;;;;;;;13.31;60.55;101373.59;5031062;27;98846;-89
2024/03/14 02:39:32;;;;;;;10.52;6.53;;;;;;;13.29;60.42;101366.53;5018171;28;97153;-89
2024/03/14 02:41:59;;;;;;;10.68;6.47;;;;;;;13.28;60.49;101370.88;5011184;27;96914;-90
2024/03/14 02:44:25;;;;;;;10.82;6.70;;;;;;;13.27;60.51;101373.50;5042113;27;99943;-90
2024/03/14 02:46:51;;;;;;;13.80;7.35;;;;;;;13.26;60.53;101371.72;5027434;27;97929;-89
2024/03/14 02:49:18;;;;;;;11.38;6.78;;;;;;;13.24;60.51;101373.44;5008632;28;96753;-90
2024/03/14 02:51:45;;;;;;;13.32;6.63;;;;;;;13.21;60.46;101366.44;5014343;27;96794;-89
2024/03/14 02:54:17;;;;;;;10.73;6.45;;;;;;;13.19;60.50;101369.91;5008209;28;100288;-90
2024/03/14 02:56:52;;;;;;;11.13;6.60;;;;;;;13.18;60.38;101369.03;5003674;27;101065;-89
2024/03/14 02:59:19;;;;;;;13.75;7.40;;;;;;;13.13;60.57;101358.50;5025100;27;96863;-89
2024/03/14 03:01:47;;;;;;;11.55;6.55;;;;;;;13.12;60.71;101353.28;5046443;27;97202;-89
2024/03/14 03:04:15;;;;;;;10.88;6.72;;;;;;;13.08;60.52;101352.38;5023997;27;97686;-91
2024/03/14 03:06:58;;;;;;;11.32;7.05;;;;;;;13.05;60.63;101359.31;5010726;28;99060;-90
2024/03/14 03:09:25;;;;;;;11.40;7.13;;;;;;;13.01;60.64;101352.25;5021544;27;96877;-90
2024/03/14 03:11:53;;;;;;;11.77;6.45;;;;;;;12.98;60.66;101350.50;5020181;27;97387;-89
2024/03/14 03:14:19;;;;;;;13.57;7.22;;;;;;;12.97;60.86;101347.88;5023226;27;100565;-90
2024/03/14 03:16:44;;;;;;;10.88;6.95;;;;;;;12.95;60.58;101351.31;5010138;28;100126;-90
2024/03/14 03:19:10;;;;;;;12.25;6.63;;;;;;;12.92;60.82;101348.69;5012398;28;96912;-90
2024/03/14 03:21:40;;;;;;;14.38;7.40;;;;;;;12.91;60.85;101348.69;5030543;27;96779;-90
2024/03/14 03:24:09;;;;;;;15.30;7.38;;;;;;;12.89;60.98;101346.03;5025898;27;99865;-89
2024/03/14 03:26:35;;;;;;;14.10;7.97;;;;;;;12.89;61.03;101345.16;5028738;27;100411;-88
2024/03/14 03:29:03;;;;;;;11.70;7.05;;;;;;;12.90;61.06;101341.66;5013161;28;96851;-89
2024/03/14 03:31:32;;;;;;;13.80;8.02;;;;;;;12.89;60.89;101332.94;5028715;27;96921;-89
2024/03/14 03:33:58;;;;;;;12.80;8.07;;;;;;;12.88;61.12;101333.78;5050852;27;100106;-88
2024/03/14 03:36:23;;;;;;;14.95;8.98;;;;;;;12.90;61.20;101336.44;5031015;27;98954;-89
2024/03/14 03:38:49;;;;;;;13.90;7.45;;;;;;;12.89;61.11;101334.69;5018134;28;97120;-89
2024/03/14 03:41:15;;;;;;;14.30;8.65;;;;;;;12.90;61.19;101337.31;5015467;28;96831;-88
2024/03/14 03:43:41;;;;;;;14.38;9.20;;;;;;;12.89;61.17;101332.06;5013716;27;100530;-89
2024/03/14 03:46:07;;;;;;;16.63;9.15;;;;;;;12.87;61.08;101331.16;5011520;28;100575;-89
2024/03/14 03:48:37;;;;;;;16.42;8.50;;;;;;;12.87;61.21;101328.53;5030908;27;96884;-89
2024/03/14 03:51:05;;;;;;;15.43;9.15;;;;;;;12.86;61.08;101319.81;5009594;28;96998;-89
2024/03/14 03:53:34;;;;;;;16.35;10.20;;;;;;;12.87;61.26;101318.06;5016669;27;100666;-89
2024/03/14 03:56:03;;;;;;;16.58;8.77;;;;;;;12.88;60.86;101323.31;5011765;28;100177;-89
2024/03/14 03:58:35;;;;;;;16.63;9.30;;;;;;;12.89;61.16;101329.47;5013152;28;97005;-89
2024/03/14 04:01:10;;;;;;;20.52;9.48;;;;;;;12.85;61.20;101323.31;5010428;28;96938;-89
2024/03/14 04:03:36;;;;;;;18.35;9.80;;;;;;;12.87;61.13;101333.78;5012326;27;100108;-89
2024/03/14 04:06:08;;;;;;;17.85;9.27;;;;;;;12.83;61.19;101329.38;5022399;27;97641;-89
2024/03/14 04:08:34;;;;;;;20.15;10.98;;;;;;;12.82;61.12;101322.41;5025581;27;96864;-89
2024/03/14 04:10:59;;;;;;;18.55;10.63;;;;;;;12.81;61.17;101324.13;5011389;28;96911;-89
2024/03/14 04:13:26;;;;;;;17.15;10.13;;;;;;;12.82;61.11;101327.63;5027504;27;97420;-90
2024/03/14 04:15:52;;;;;;;15.27;9.50;;;;;;;12.81;61.18;101329.34;5029650;27;97506;-89
2024/03/14 04:18:17;;;;;;;20.08;10.70;;;;;;;12.79;61.13;101332.84;5010456;28;96907;-89
2024/03/14 04:20:43;;;;;;;20.38;9.93;;;;;;;12.77;61.23;101331.06;5011418;28;96888;-89
2024/03/14 04:23:10;;;;;;;18.10;10.25;;;;;;;12.75;61.36;101322.31;5011484;28;100111;-89
2024/03/14 04:25:36;;;;;;;18.75;10.73;;;;;;;12.74;61.37;101336.28;5027568;28;99079;-89
2024/03/14 04:28:07;;;;;;;20.15;10.88;;;;;;;12.75;61.45;101326.69;5029939;27;96783;-89
2024/03/14 04:30:35;;;;;;;20.63;11.05;;;;;;;12.71;61.27;101328.38;5021157;27;96912;-89
2024/03/14 04:33:03;;;;;;;19.67;10.85;;;;;;;12.70;61.44;101326.63;5027672;27;100110;-89
2024/03/14 04:35:31;;;;;;;20.85;10.68;;;;;;;12.68;61.30;101330.97;5024209;28;97581;-89
2024/03/14 04:37:57;;;;;;;20.65;10.52;;;;;;;12.66;61.38;101329.19;5029203;27;97353;-89
2024/03/14 04:40:22;;;;;;;21.00;10.70;;;;;;;12.64;61.18;101329.19;5024574;27;96857;-88
2024/03/14 04:42:54;;;;;;;21.00;11.20;;;;;;;12.64;61.43;101328.28;5011864;27;100190;-89
2024/03/14 04:45:24;;;;;;;26.42;12.10;;;;;;;12.62;61.45;101320.44;5009999;28;100105;-89
2024/03/14 04:47:54;;;;;;;23.23;11.25;;;;;;;12.62;61.41;101330.00;5012336;27;96892;-89
2024/03/14 04:50:23;;;;;;;20.92;11.20;;;;;;;12.59;61.34;101333.47;5010608;28;96970;-89
2024/03/14 04:52:54;;;;;;;22.67;11.88;;;;;;;12.55;61.58;101329.06;5010124;27;100460;-89
2024/03/14 04:55:23;;;;;;;25.15;12.57;;;;;;;12.54;61.53;101316.84;5026275;27;97801;-89
2024/03/14 04:57:49;;;;;;;25.83;12.18;;;;;;;12.54;61.61;101329.91;5011599;27;96861;-89
2024/03/14 05:00:25;;;;;;;22.05;12.32;;;;;;;12.53;61.54;101334.28;5025086;27;96972;-89
2024/03/14 05:02:51;;;;;;;23.52;12.27;;;;;;;12.51;61.67;101332.50;5024989;27;100307;-89
2024/03/14 05:05:18;;;;;;;22.33;13.18;;;;;;;12.49;61.56;101331.59;5026221;27;100015;-89
2024/03/14 05:07:44;;;;;;;21.75;11.85;;;;;;;12.49;61.64;101328.97;5028584;27;97434;-89
2024/03/14 05:10:10;;;;;;;24.33;11.68;;;;;;;12.49;61.54;101328.97;5030036;27;96843;-89
2024/03/14 05:12:36;;;;;;;22.48;11.88;;;;;;;12.48;61.56;101325.50;5026971;27;97995;-89
2024/03/14 05:15:07;;;;;;;23.60;12.23;;;;;;;12.46;61.72;101321.09;5026585;27;100073;-89
2024/03/14 05:17:36;;;;;;;25.23;12.43;;;;;;;12.44;61.71;101320.19;5006316;27;96737;-89
2024/03/14 05:20:05;;;;;;;27.25;12.77;;;;;;;12.42;61.70;101320.16;5031956;27;96963;-89
2024/03/14 05:22:34;;;;;;;;;;;;;;;12.37;61.54;101320.13;5002718;28;99012;-89
2024/03/14 05:25:09;;;;;;;27.73;11.95;;;;;;;12.40;61.60;101318.41;5026300;27;99807;-89
2024/03/14 05:27:35;;;;;;;24.10;11.88;;;;;;;12.37;61.58;101324.47;5016705;27;96945;-89
2024/03/14 05:30:00;;;;;;;25.55;11.88;;;;;;;12.33;61.35;101318.31;5011001;27;97052;-89
2024/03/14 05:32:29;;;;;;;27.30;12.27;;;;;;;12.33;61.80;101320.94;5007921;28;99326;-88
2024/03/14 05:34:55;;;;;;;23.75;12.38;;;;;;;12.31;61.65;101325.25;5011464;28;99317;-89
2024/03/14 05:37:24;;;;;;;27.00;12.40;;;;;;;12.28;61.87;101320.03;5010930;28;96911;-89
2024/03/14 05:39:50;;;;;;;25.73;12.93;;;;;;;12.28;61.89;101317.41;5028239;27;96872;-89
2024/03/14 05:42:18;;;;;;;28.58;12.38;;;;;;;12.27;61.88;101322.59;5005520;28;99692;-89
2024/03/14 05:44:47;;;;;;;27.77;11.57;;;;;;;12.26;62.07;101318.22;5014815;28;98750;-89
2024/03/14 05:47:13;;;;;;;24.10;12.30;;;;;;;12.26;62.04;101323.44;5044998;27;96992;-89
2024/03/14 05:49:39;;;;;;;28.08;13.18;;;;;;;12.26;61.95;101313.00;5013165;27;96895;-89
2024/03/14 05:52:05;;;;;;;23.20;12.27;;;;;;;12.24;61.93;101310.34;5009159;28;100440;-89
2024/03/14 05:54:41;;;;;;;;;;;;;;;;;;;;;
2024/03/14 05:57:07;;;;;;;22.55;11.63;;;;;;;12.27;62.13;101315.63;5027848;27;96946;-89
2024/03/14 05:59:36;;;;;;;26.80;12.93;;;;;;;12.25;62.09;101322.59;5029158;27;97021;-88
2024/03/14 06:02:07;;;;;;;22.88;12.20;;;;;;;12.27;61.95;101322.59;5008782;28;100425;-88
2024/03/14 06:04:41;;;;;;;24.38;12.35;;;;;;;12.24;61.89;101312.97;5025538;27;100157;-88
2024/03/14 06:07:07;;;;;;;26.02;12.10;;;;;;;12.25;61.93;101316.47;5010279;28;96999;-89
2024/03/14 06:09:41;;;;;;;25.33;11.25;;;;;;;12.21;61.98;101315.56;5010176;28;97096;-90
2024/03/14 06:12:08;;;;;;;24.58;11.98;;;;;;;12.21;62.01;101323.41;5013123;28;99942;-89
2024/03/14 06:14:34;;;;;;;23.92;11.88;;;;;;;12.21;62.13;101319.91;5027911;27;100180;-89
2024/03/14 06:17:00;;;;;;;24.95;12.57;;;;;;;12.21;62.15;101327.75;5025811;28;96828;-90
2024/03/14 06:19:26;;;;;;;25.63;12.63;;;;;;;12.19;62.45;101325.09;5028983;27;96888;-89
2024/03/14 06:21:52;;;;;;;22.98;11.35;;;;;;;12.20;62.30;101321.63;5012266;28;100642;-88
2024/03/14 06:24:17;;;;;;;23.70;11.75;;;;;;;12.22;62.33;101313.81;5028518;27;99289;-88
2024/03/14 06:26:47;;;;;;;25.30;12.07;;;;;;;12.23;62.25;101312.94;5013825;28;96927;-89
2024/03/14 06:29:12;;;;;;;;;;;;;;;12.22;62.22;101322.53;5006696;28;96975;-88
2024/03/14 06:31:38;;;;;;;24.55;12.02;;;;;;;12.27;62.14;101317.38;5001232;28;100081;-89
2024/03/14 06:34:08;;;;;;;24.75;12.27;;;;;;;12.27;62.24;101322.59;5015065;27;100085;-88
2024/03/14 06:36:35;;;;;;;21.40;10.85;;;;;;;12.27;62.25;101323.47;5012725;27;96928;-89
2024/03/14 06:39:06;;;;;;;23.13;11.95;;;;;;;12.26;62.39;101324.31;5031062;27;97375;-88
2024/03/14 06:41:35;;;;;;;22.25;11.40;;;;;;;12.31;62.52;101325.25;5027928;27;100205;-88
2024/03/14 06:44:04;;;;;;;22.65;11.52;;;;;;;12.34;62.74;101319.22;5026634;27;99955;-88
2024/03/14 06:46:29;;;;;;;21.38;11.43;;;;;;;12.39;62.46;101328.00;5015953;27;96948;-88
2024/03/14 06:48:55;;;;;;;26.40;12.15;;;;;;;12.41;62.68;101326.28;5001898;28;96719;-89
2024/03/14 06:51:22;;;;;;;20.85;10.27;;;;;;;12.47;62.69;101326.34;5002382;28;100146;-88
2024/03/14 06:53:54;;;;;;;25.45;11.32;;;;;;;12.51;62.69;101309.84;5031278;27;98874;-89
2024/03/14 06:56:19;;;;;;;23.92;11.68;;;;;;;12.56;62.67;101315.97;5011047;28;96930;-88
2024/03/14 06:58:46;;;;;;;18.65;9.52;;;;;;;12.64;62.73;101307.34;5015646;27;96817;-89
2024/03/14 07:01:12;;;;;;;19.48;10.23;;;;;;;12.73;62.83;101312.72;5030160;27;99713;-89
2024/03/14 07:03:37;;;;;;;21.45;11.00;;;;;;;12.81;62.74;101307.53;5022519;27;100089;-89
2024/03/14 07:06:05;;;;;;;17.83;9.63;;;;;;;12.89;62.71;101308.53;5030201;27;96980;-89
2024/03/14 07:08:30;;;;;;;20.25;10.98;;;;;;;12.94;62.55;101307.69;5033423;27;96988;-89
2024/03/14 07:10:58;;;;;;;19.77;11.13;;;;;;;13.01;62.62;101303.41;5022257;27;99223;-89
2024/03/14 07:13:25;;;;;;;16.90;9.65;;;;;;;13.08;62.63;101304.31;5035108;27;99895;-89
2024/03/14 07:15:51;;;;;;;16.70;9.38;;;;;;;13.14;62.37;101299.16;5010196;28;96954;-89
2024/03/14 07:18:16;;;;;;;18.75;9.85;;;;;;;13.18;62.42;101308.78;5052522;27;97743;-89
2024/03/14 07:20:44;;;;;;;17.85;9.43;;;;;;;13.21;62.35;101306.22;5003702;28;100564;-89
2024/03/14 07:23:10;;;;;;;17.83;8.82;;;;;;;13.26;62.40;101304.50;5029190;27;100557;-89
2024/03/14 07:25:36;;;;;;;19.60;9.88;;;;;;;13.31;62.57;101308.09;5027663;27;96968;-89
2024/03/14 07:28:09;;;;;;;18.00;9.85;;;;;;;13.40;62.47;101307.25;5037976;27;96955;-88
2024/03/14 07:30:35;;;;;;;15.75;8.60;;;;;;;13.48;62.76;101305.59;5030703;27;97906;-89
2024/03/14 07:33:03;;;;;;;15.48;7.97;;;;;;;13.56;62.65;101303.00;5015404;28;100221;-88
2024/03/14 07:35:34;;;;;;;16.50;8.35;;;;;;;13.65;62.85;101297.88;5026882;27;96956;-88
2024/03/14 07:38:00;;;;;;;16.30;8.40;;;;;;;13.79;62.97;101295.31;5034342;27;96896;-89
2024/03/14 07:40:32;;;;;;;16.25;8.27;;;;;;;13.93;62.97;101305.03;5036538;27;99891;-89
2024/03/14 07:42:59;;;;;;;14.95;8.10;;;;;;;14.12;62.94;101290.25;5007339;28;100163;-89
2024/03/14 07:45:30;;;;;;;14.02;7.90;;;;;;;14.33;63.02;101290.38;5014975;28;96725;-89
2024/03/14 07:47:56;;;;;;;15.15;7.40;;;;;;;14.55;62.85;101287.84;5033300;27;96934;-89
2024/03/14 07:50:25;;;;;;;16.35;7.72;;;;;;;14.76;62.55;101294.91;5018002;28;99182;-89
2024/03/14 07:52:51;;;;;;;13.02;6.97;;;;;;;15.00;62.56;101291.47;5030483;28;99160;-89
2024/03/14 07:55:23;;;;;;;12.88;7.40;;;;;;;15.27;62.71;101293.22;5018511;28;96902;-90
2024/03/14 07:57:49;;;;;;;12.65;6.18;;;;;;;15.59;62.87;101293.22;5017283;27;96904;-89
2024/03/14 08:00:15;;;;;;;11.80;6.93;;;;;;;15.88;62.90;101297.59;5018421;27;99947;-89
2024/03/14 08:02:42;;;;;;;11.50;6.68;;;;;;;16.19;62.58;101300.16;5033080;27;100348;-88
2024/03/14 08:05:11;;;;;;;12.05;6.78;;;;;;;16.46;62.65;101303.56;5031316;27;98163;-89
2024/03/14 08:07:39;;;;;;;11.32;7.00;;;;;;;16.79;62.86;101301.63;5019635;28;97344;-89
2024/03/14 08:10:08;;;;;;;14.20;6.35;;;;;;;17.06;61.86;101298.84;5033121;27;100617;-89
2024/03/14 08:12:33;;;;;;;10.95;6.43;;;;;;;17.28;61.04;101296.91;5026035;27;96837;-89
2024/03/14 08:15:11;;;;;;;9.10;5.80;;;;;;;17.49;60.17;101298.50;5027002;27;96903;-89
2024/03/14 08:17:39;;;;;;;9.38;5.75;;;;;;;17.62;58.56;101298.38;5033322;27;96818;-88
2024/03/14 08:20:07;;;;;;;10.27;5.55;;;;;;;17.68;57.86;101299.22;5014932;27;100552;-89
2024/03/14 08:22:35;;;;;;;11.02;5.75;;;;;;;17.66;57.22;101294.81;5021989;27;98960;-89
2024/03/14 08:25:02;;;;;;;11.68;6.22;;;;;;;17.73;57.53;101293.88;5009236;28;96882;-89
2024/03/14 08:27:28;;;;;;;9.48;5.65;;;;;;;17.85;57.15;101295.53;5027530;27;97330;-89
2024/03/14 08:29:55;;;;;;;9.88;6.03;;;;;;;17.94;57.20;101291.94;5012880;28;100488;-89
2024/03/14 08:32:23;;;;;;;10.25;5.10;;;;;;;18.08;57.20;101295.31;5013672;27;100500;-89
2024/03/14 08:34:49;;;;;;;9.07;5.45;;;;;;;18.34;57.67;101288.84;5030814;27;96869;-89
2024/03/14 08:37:14;;;;;;;11.70;5.90;;;;;;;18.60;57.62;101289.38;5009591;28;96820;-90
2024/03/14 08:39:41;;;;;;;10.52;5.35;;;;;;;18.82;57.67;101286.44;5007268;27;99574;-89
2024/03/14 08:42:08;;;;;;;9.40;5.28;;;;;;;18.99;57.31;101287.06;5049629;27;99723;-90
2024/03/14 08:44:33;;;;;;;10.20;5.55;;;;;;;19.16;57.23;101278.91;5016842;27;96843;-90
2024/03/14 08:47:08;;;;;;;7.95;5.03;;;;;;;19.24;55.92;101286.69;5046977;27;97366;-89
2024/03/14 08:49:35;;;;;;;10.02;5.35;;;;;;;19.29;55.05;101278.69;5007703;28;100203;-89
2024/03/14 08:52:04;;;;;;;8.90;4.70;;;;;;;19.23;54.06;101277.00;5032609;27;99493;-90
2024/03/14 08:54:35;;;;;;;;;;;;;;;19.19;55.38;101288.53;5017935;27;96795;-89
2024/03/14 08:57:09;;;;;;;9.73;4.88;;;;;;;19.20;53.99;101285.88;5029889;27;97038;-91
2024/03/14 08:59:35;;;;;;;8.80;4.97;;;;;;;19.16;53.85;101280.63;5025934;27;100212;-89
2024/03/14 09:02:01;;;;;;;7.82;5.03;;;;;;;19.14;53.76;101283.31;5029488;27;97467;-89
2024/03/14 09:04:28;;;;;;;7.95;5.00;;;;;;;19.16;53.77;101273.59;5010385;28;97607;-89
2024/03/14 09:06:54;;;;;;;9.25;4.78;;;;;;;19.20;53.79;101272.66;5011354;28;96893;-90
2024/03/14 09:09:34;;;;;;;9.98;5.13;;;;;;;19.26;54.39;101276.97;5030836;28;100476;-89
2024/03/14 09:12:22;;;;;;;8.80;4.25;;;;;;;19.38;54.30;101275.88;5021494;28;97459;-89
2024/03/14 09:14:50;;;;;;;6.75;4.40;;;;;;;19.61;54.08;101275.47;5028760;28;96798;-89
2024/03/14 09:17:20;;;;;;;8.25;4.38;;;;;;;19.65;53.06;101271.88;5013987;28;97637;-90
2024/03/14 09:19:45;;;;;;;7.45;4.78;;;;;;;19.64;53.49;101269.25;5013167;28;98250;-89
2024/03/14 09:22:11;;;;;;;6.20;3.75;;;;;;;19.66;53.38;101278.03;5012759;28;100419;-90
2024/03/14 09:24:37;;;;;;;10.48;4.47;;;;;;;19.70;53.14;101269.16;5012588;28;96813;-90
2024/03/14 09:27:06;;;;;;;8.40;4.03;;;;;;;19.78;53.00;101261.94;5029806;28;96856;-89
2024/03/14 09:29:34;;;;;;;7.55;4.32;;;;;;;19.87;52.23;101263.56;5018967;28;99512;-89
2024/03/14 09:32:00;;;;;;;7.32;4.60;;;;;;;19.92;51.52;101267.00;5025468;28;100167;-90
2024/03/14 09:34:27;;;;;;;7.82;4.05;;;;;;;19.91;51.13;101263.47;5029306;27;96803;-90
2024/03/14 09:36:53;;;;;;;7.07;4.45;;;;;;;19.89;51.02;101270.59;5017383;28;96957;-91
2024/03/14 09:39:23;;;;;;;7.95;4.20;;;;;;;19.88;51.06;101262.66;5015060;28;100118;-89
2024/03/14 09:41:49;;;;;;;7.60;5.00;;;;;;;19.88;50.85;101260.88;5013056;28;100081;-89
2024/03/14 09:44:15;;;;;;;8.80;4.18;;;;;;;19.88;51.54;101255.59;5010189;28;96895;-90
2024/03/14 09:47:18;;;;;;;7.57;4.50;;;;;;;19.95;51.82;101254.56;5030777;28;96837;-90
2024/03/14 09:49:53;;;;;;;6.97;4.05;;;;;;;20.07;51.33;101253.47;5028209;28;99515;-90
2024/03/14 09:52:19;;;;;;;8.10;4.53;;;;;;;20.14;50.87;101255.06;5014199;28;100424;-90
2024/03/14 09:54:49;;;;;;;7.25;3.95;;;;;;;20.20;51.43;101255.84;5030919;28;96811;-89
2024/03/14 09:57:19;;;;;;;7.10;4.32;;;;;;;20.31;51.29;101249.41;5013247;28;96887;-89
2024/03/14 09:59:44;;;;;;;6.25;3.97;;;;;;;20.39;51.14;101237.78;5013109;28;100556;-89
2024/03/14 10:02:17;;;;;;;7.60;4.13;;;;;;;20.41;50.53;101234.19;5026262;28;100384;-89
2024/03/14 10:04:43;;;;;;;5.47;3.50;;;;;;;20.41;50.46;101238.59;5015060;28;96856;-89
2024/03/14 10:07:09;;;;;;;6.10;3.55;;;;;;;20.44;50.37;101238.53;5022337;28;96977;-90
2024/03/14 10:09:35;;;;;;;5.57;3.92;;;;;;;20.56;50.60;101240.06;5007032;28;100052;-90
2024/03/14 10:12:06;;;;;;;6.13;3.90;;;;;;;20.70;50.65;101233.56;5022358;28;99410;-89
2024/03/14 10:14:40;;;;;;;8.35;4.15;;;;;;;20.85;49.79;101236.75;5014532;28;97202;-90
2024/03/14 10:17:08;;;;;;;7.57;4.53;;;;;;;20.96;49.57;101237.34;5011008;28;96782;-89
2024/03/14 10:19:35;;;;;;;5.90;4.15;;;;;;;21.03;49.56;101233.66;5028658;28;100031;-89
2024/03/14 10:22:05;;;;;;;5.68;3.55;;;;;;;21.13;48.77;101236.09;5012408;28;99742;-90
2024/03/14 10:24:30;;;;;;;6.60;3.85;;;;;;;21.03;48.13;101231.00;5028500;28;96871;-90
2024/03/14 10:26:57;;;;;;;7.50;3.83;;;;;;;20.89;48.34;101222.50;5029300;28;96858;-90
2024/03/14 10:29:25;;;;;;;6.85;3.85;;;;;;;20.86;48.31;101222.59;5001082;28;100442;-89
2024/03/14 10:31:54;;;;;;;7.68;4.13;;;;;;;20.88;48.67;101212.81;5027402;28;98843;-90
2024/03/14 10:34:19;;;;;;;6.20;4.32;;;;;;;20.99;48.90;101218.72;5011823;28;96861;-89
2024/03/14 10:36:52;;;;;;;7.32;3.80;;;;;;;21.02;48.27;101215.13;5007342;28;96794;-90
2024/03/14 10:39:18;;;;;;;10.27;4.15;;;;;;;20.98;48.00;101213.44;4992740;28;99261;-89
2024/03/14 10:41:47;;;;;;;6.57;3.83;;;;;;;20.94;48.31;101212.66;5005283;28;99807;-90
2024/03/14 10:44:16;;;;;;;6.97;4.22;;;;;;;20.93;47.97;101213.59;5030541;28;96822;-89
2024/03/14 10:46:54;;;;;;;6.13;3.72;;;;;;;20.89;48.16;101211.88;4994765;28;96875;-90
2024/03/14 10:49:24;;;;;;;6.13;3.72;;;;;;;20.92;48.15;101206.53;5009886;28;100675;-90
2024/03/14 10:51:49;;;;;;;6.90;3.95;;;;;;;20.94;48.30;101212.66;5017590;28;97975;-90
2024/03/14 10:54:26;;;;;;;5.72;3.72;;;;;;;20.96;48.25;101212.63;5011874;28;96858;-90
2024/03/14 10:56:56;;;;;;;5.70;3.67;;;;;;;21.05;49.12;101205.31;5010940;28;96951;-90
2024/03/14 10:59:22;;;;;;;5.78;3.60;;;;;;;21.23;48.61;101203.09;5009827;28;100239;-89
2024/03/14 11:01:53;;;;;;;6.13;3.92;;;;;;;21.29;48.25;101208.25;5001441;28;100122;-89
2024/03/14 11:04:23;;;;;;;5.03;3.47;;;;;;;21.41;47.96;101196.44;4997888;28;96903;-89
2024/03/14 11:06:54;;;;;;;6.88;3.50;;;;;;;21.59;47.85;101198.63;5028657;28;96899;-90
2024/03/14 11:09:26;;;;;;;5.82;3.50;;;;;;;21.70;47.54;101194.81;5009653;28;100461;-89
2024/03/14 11:12:03;;;;;;;6.70;3.65;;;;;;;21.82;47.21;101191.81;5018878;28;99834;-90
2024/03/14 11:14:45;;;;;;;4.75;3.13;;;;;;;21.97;47.04;101182.50;5015398;28;96899;-89
2024/03/14 11:17:13;;;;;;;4.95;2.95;;;;;;;22.13;46.68;101194.41;5020421;28;97029;-89
2024/03/14 11:19:43;;;;;;;;;;;;;;;22.12;47.37;101190.03;5028305;28;100582;-90
2024/03/14 11:22:09;;;;;;;4.75;3.15;;;;;;;22.16;46.18;101194.31;5029087;28;100220;-89